sensor_id;sensor_type;location;lat;lon;timestamp;pressure;altitude;pressure_sealevel;temperature;humidity
19797;BME280;10058;57.654;12.044;2023-07-29T00:01:02;100168.91;;;16.00;100.00
19797;BME280;10058;57.654;12.044;2023-07-29T00:03:27;100159.16;;;15.96;100.00
19797;BME280;10058;57.654;12.044;2023-07-29T00:05:55;100165.38;;;15.98;100.00
19797;BME280;10058;57.654;12.044;2023-07-29T00:08:20;100160.03;;;16.01;100.00
19797;BME280;10058;57.654;12.044;2023-07-29T00:10:45;100159.16;;;15.95;100.00
19797;BME280;10058;57.654;12.044;2023-07-29T00:13:10;100163.59;;;15.99;100.00
19797;BME280;10058;57.654;12.044;2023-07-29T00:15:36;100158.31;;;15.93;100.00
19797;BME280;10058;57.654;12.044;2023-07-29T00:18:01;100155.66;;;15.91;100.00
19797;BME280;10058;57.654;12.044;2023-07-29T00:20:26;100155.66;;;15.87;100.00
19797;BME280;10058;57.654;12.044;2023-07-29T00:22:52;100158.31;;;15.82;100.00
19797;BME280;10058;57.654;12.044;2023-07-29T00:25:21;100147.66;;;15.79;100.00
19797;BME280;10058;57.654;12.044;2023-07-29T00:27:46;100156.56;;;15.81;100.00
19797;BME280;10058;57.654;12.044;2023-07-29T00:30:12;100152.09;;;15.85;100.00
19797;BME280;10058;57.654;12.044;2023-07-29T00:32:37;100160.09;;;15.83;100.00
19797;BME280;10058;57.654;12.044;2023-07-29T00:35:03;100142.34;;;15.79;100.00
19797;BME280;10058;57.654;12.044;2023-07-29T00:37:30;100155.66;;;15.85;100.00
19797;BME280;10058;57.654;12.044;2023-07-29T00:39:55;100150.31;;;15.87;100.00
19797;BME280;10058;57.654;12.044;2023-07-29T00:42:21;100148.56;;;15.86;100.00
19797;BME280;10058;57.654;12.044;2023-07-29T00:44:46;100156.56;;;15.81;100.00
19797;BME280;10058;57.654;12.044;2023-07-29T00:47:15;100154.81;;;15.74;100.00
19797;BME280;10058;57.654;12.044;2023-07-29T00:49:40;100150.38;;;15.69;100.00
19797;BME280;10058;57.654;12.044;2023-07-29T00:52:06;100153.06;;;15.69;100.00
19797;BME280;10058;57.654;12.044;2023-07-29T00:54:31;100158.38;;;15.64;100.00
19797;BME280;10058;57.654;12.044;2023-07-29T00:56:57;100145.97;;;15.54;100.00
19797;BME280;10058;57.654;12.044;2023-07-29T00:59:22;100151.28;;;15.60;100.00
19797;BME280;10058;57.654;12.044;2023-07-29T01:01:48;100131.75;;;15.46;100.00
19797;BME280;10058;57.654;12.044;2023-07-29T01:04:13;100143.31;;;15.51;100.00
19797;BME280;10058;57.654;12.044;2023-07-29T01:07:17;100142.41;;;15.52;100.00
19797;BME280;10058;57.654;12.044;2023-07-29T01:10:04;100142.41;;;15.52;100.00
19797;BME280;10058;57.654;12.044;2023-07-29T01:17:42;100127.34;;;15.40;100.00
19797;BME280;10058;57.654;12.044;2023-07-29T01:20:09;100124.66;;;15.42;100.00
19797;BME280;10058;57.654;12.044;2023-07-29T01:22:37;100131.75;;;15.43;100.00
19797;BME280;10058;57.654;12.044;2023-07-29T01:25:03;100123.78;;;15.44;100.00
19797;BME280;10058;57.654;12.044;2023-07-29T01:27:29;100118.44;;;15.43;100.00
19797;BME280;10058;57.654;12.044;2023-07-29T01:29:56;100133.56;;;15.38;100.00
19797;BME280;10058;57.654;12.044;2023-07-29T01:35:00;100126.47;;;15.30;100.00
19797;BME280;10058;57.654;12.044;2023-07-29T01:37:30;100121.16;;;15.27;100.00
19797;BME280;10058;57.654;12.044;2023-07-29T01:39:58;100120.25;;;15.31;100.00
19797;BME280;10058;57.654;12.044;2023-07-29T01:42:25;100124.69;;;15.32;100.00
19797;BME280;10058;57.654;12.044;2023-07-29T01:44:51;100126.47;;;15.27;100.00
19797;BME280;10058;57.654;12.044;2023-07-29T01:47:17;100112.31;;;15.22;100.00
19797;BME280;10058;57.654;12.044;2023-07-29T01:49:42;100118.53;;;15.21;100.00
19797;BME280;10058;57.654;12.044;2023-07-29T01:52:07;100121.19;;;15.17;100.00
19797;BME280;10058;57.654;12.044;2023-07-29T01:54:33;100128.28;;;15.22;100.00
19797;BME280;10058;57.654;12.044;2023-07-29T01:56:58;100122.03;;;15.25;100.00
19797;BME280;10058;57.654;12.044;2023-07-29T01:59:23;100115.81;;;15.24;100.00
19797;BME280;10058;57.654;12.044;2023-07-29T02:01:49;100120.28;;;15.18;100.00
19797;BME280;10058;57.654;12.044;2023-07-29T02:04:14;100126.47;;;15.24;100.00
19797;BME280;10058;57.654;12.044;2023-07-29T02:06:39;100133.59;;;15.22;100.00
19797;BME280;10058;57.654;12.044;2023-07-29T02:09:05;100122.03;;;15.25;100.00
19797;BME280;10058;57.654;12.044;2023-07-29T02:11:30;100126.47;;;15.27;100.00
19797;BME280;10058;57.654;12.044;2023-07-29T02:13:56;100122.94;;;15.31;100.00
19797;BME280;10058;57.654;12.044;2023-07-29T02:16:22;100127.34;;;15.31;100.00
19797;BME280;10058;57.654;12.044;2023-07-29T02:18:50;100120.25;;;15.27;100.00
19797;BME280;10058;57.654;12.044;2023-07-29T02:21:16;100107.84;;;15.26;100.00
19797;BME280;10058;57.654;12.044;2023-07-29T02:23:41;100116.75;;;15.22;100.00
19797;BME280;10058;57.654;12.044;2023-07-29T02:26:06;100114.09;;;15.20;100.00
19797;BME280;10058;57.654;12.044;2023-07-29T02:28:32;100120.28;;;15.18;100.00
19797;BME280;10058;57.654;12.044;2023-07-29T02:33:44;100108.75;;;15.11;100.00
19797;BME280;10058;57.654;12.044;2023-07-29T02:36:12;100101.69;;;15.04;100.00
19797;BME280;10058;57.654;12.044;2023-07-29T02:38:38;100097.25;;;15.00;100.00
19797;BME280;10058;57.654;12.044;2023-07-29T02:41:03;100107.00;;;15.04;100.00
19797;BME280;10058;57.654;12.044;2023-07-29T02:43:28;100112.34;;;15.04;100.00
19797;BME280;10058;57.654;12.044;2023-07-29T02:45:54;100110.56;;;15.06;100.00
19797;BME280;10058;57.654;12.044;2023-07-29T02:48:19;100106.13;;;15.04;100.00
19797;BME280;10058;57.654;12.044;2023-07-29T02:50:44;100101.69;;;15.01;100.00
19797;BME280;10058;57.654;12.044;2023-07-29T02:53:09;100108.78;;;14.96;100.00
19797;BME280;10058;57.654;12.044;2023-07-29T02:55:35;100101.69;;;14.92;100.00
19797;BME280;10058;57.654;12.044;2023-07-29T02:58:00;100099.91;;;14.89;100.00
19797;BME280;10058;57.654;12.044;2023-07-29T03:00:25;100098.13;;;14.91;100.00
19797;BME280;10058;57.654;12.044;2023-07-29T03:02:50;100111.44;;;14.93;100.00
19797;BME280;10058;57.654;12.044;2023-07-29T03:05:16;100102.59;;;14.88;100.00
19797;BME280;10058;57.654;12.044;2023-07-29T03:07:41;100103.47;;;14.87;100.00
19797;BME280;10058;57.654;12.044;2023-07-29T03:10:07;100094.59;;;14.79;100.00
19797;BME280;10058;57.654;12.044;2023-07-29T03:12:32;100096.38;;;14.74;100.00
19797;BME280;10058;57.654;12.044;2023-07-29T03:14:57;100100.78;;;14.75;100.00
19797;BME280;10058;57.654;12.044;2023-07-29T03:17:23;100092.81;;;14.75;100.00
19797;BME280;10058;57.654;12.044;2023-07-29T03:19:49;100091.94;;;14.77;100.00
19797;BME280;10058;57.654;12.044;2023-07-29T03:22:15;100102.56;;;14.77;100.00
19797;BME280;10058;57.654;12.044;2023-07-29T03:24:40;100091.06;;;14.80;100.00
19797;BME280;10058;57.654;12.044;2023-07-29T03:27:07;100091.06;;;14.83;100.00
19797;BME280;10058;57.654;12.044;2023-07-29T03:29:34;100097.25;;;14.83;100.00
19797;BME280;10058;57.654;12.044;2023-07-29T03:31:59;100093.72;;;14.86;100.00
19797;BME280;10058;57.654;12.044;2023-07-29T03:34:25;100097.25;;;14.94;100.00
19797;BME280;10058;57.654;12.044;2023-07-29T03:36:50;100088.38;;;14.96;100.00
19797;BME280;10058;57.654;12.044;2023-07-29T03:39:16;100085.72;;;15.01;100.00
19797;BME280;10058;57.654;12.044;2023-07-29T03:41:41;100085.72;;;15.04;100.00
19797;BME280;10058;57.654;12.044;2023-07-29T03:44:07;100075.97;;;14.98;100.00
19797;BME280;10058;57.654;12.044;2023-07-29T03:46:32;100078.63;;;14.97;100.00
19797;BME280;10058;57.654;12.044;2023-07-29T03:48:57;100078.63;;;14.98;100.00
19797;BME280;10058;57.654;12.044;2023-07-29T03:51:23;100083.94;;;15.00;100.00
19797;BME280;10058;57.654;12.044;2023-07-29T03:53:49;100076.84;;;14.99;100.00
19797;BME280;10058;57.654;12.044;2023-07-29T03:56:15;100078.63;;;14.97;100.00
19797;BME280;10058;57.654;12.044;2023-07-29T03:58:40;100076.84;;;15.02;100.00
19797;BME280;10058;57.654;12.044;2023-07-29T04:01:06;100078.63;;;15.05;100.00
19797;BME280;10058;57.654;12.044;2023-07-29T04:03:33;100076.84;;;15.05;100.00
19797;BME280;10058;57.654;12.044;2023-07-29T04:05:58;100077.69;;;15.21;100.00
19797;BME280;10058;57.654;12.044;2023-07-29T04:08:23;100077.66;;;15.27;100.00
19797;BME280;10058;57.654;12.044;2023-07-29T04:10:49;100073.22;;;15.33;100.00
19797;BME280;10058;57.654;12.044;2023-07-29T04:13:14;100074.94;;;15.42;100.00
19797;BME280;10058;57.654;12.044;2023-07-29T04:15:39;100075.84;;;15.47;100.00
19797;BME280;10058;57.654;12.044;2023-07-29T04:18:05;100064.28;;;15.50;100.00
19797;BME280;10058;57.654;12.044;2023-07-29T04:20:30;100061.59;;;15.66;100.00
19797;BME280;10058;57.654;12.044;2023-07-29T04:22:55;100062.47;;;15.67;100.00
19797;BME280;10058;57.654;12.044;2023-07-29T04:25:20;100066.91;;;15.73;100.00
19797;BME280;10058;57.654;12.044;2023-07-29T04:27:46;100067.75;;;15.76;100.00
19797;BME280;10058;57.654;12.044;2023-07-29T04:30:11;100056.16;;;15.85;100.00
19797;BME280;10058;57.654;12.044;2023-07-29T04:32:36;100048.19;;;15.77;100.00
19797;BME280;10058;57.654;12.044;2023-07-29T04:35:01;100064.16;;;15.86;100.00
19797;BME280;10058;57.654;12.044;2023-07-29T04:37:27;100065.03;;;15.93;100.00
19797;BME280;10058;57.654;12.044;2023-07-29T04:39:52;100062.28;;;16.05;100.00
19797;BME280;10058;57.654;12.044;2023-07-29T04:42:17;100054.28;;;16.08;100.00
19797;BME280;10058;57.654;12.044;2023-07-29T04:44:43;100065.72;;;16.24;100.00
19797;BME280;10058;57.654;12.044;2023-07-29T04:47:08;100063.94;;;16.23;100.00
19797;BME280;10058;57.654;12.044;2023-07-29T04:49:34;100061.28;;;16.20;100.00
19797;BME280;10058;57.654;12.044;2023-07-29T04:51:59;100055.97;;;16.17;100.00
19797;BME280;10058;57.654;12.044;2023-07-29T04:54:24;100062.16;;;16.25;100.00
19797;BME280;10058;57.654;12.044;2023-07-29T04:56:49;100060.44;;;16.12;100.00
19797;BME280;10058;57.654;12.044;2023-07-29T04:59:15;100062.09;;;16.28;100.00
19797;BME280;10058;57.654;12.044;2023-07-29T05:01:40;100059.38;;;16.42;100.00
19797;BME280;10058;57.654;12.044;2023-07-29T05:04:07;100057.59;;;16.44;100.00
19797;BME280;10058;57.654;12.044;2023-07-29T05:06:32;100058.47;;;16.43;100.00
19797;BME280;10058;57.654;12.044;2023-07-29T05:08:58;100052.16;;;16.51;100.00
19797;BME280;10058;57.654;12.044;2023-07-29T05:11:23;100053.00;;;16.59;100.00
19797;BME280;10058;57.654;12.044;2023-07-29T05:13:50;100047.59;;;16.68;100.00
19797;BME280;10058;57.654;12.044;2023-07-29T05:16:15;100039.47;;;16.81;100.00
19797;BME280;10058;57.654;12.044;2023-07-29T05:18:41;100036.69;;;16.96;100.00
19797;BME280;10058;57.654;12.044;2023-07-29T05:21:06;100034.72;;;17.13;100.00
19797;BME280;10058;57.654;12.044;2023-07-29T05:23:33;100035.28;;;17.41;100.00
19797;BME280;10058;57.654;12.044;2023-07-29T05:25:58;100030.66;;;17.54;100.00
19797;BME280;10058;57.654;12.044;2023-07-29T05:28:24;100026.00;;;17.72;100.00
19797;BME280;10058;57.654;12.044;2023-07-29T05:30:49;100018.44;;;18.02;100.00
19797;BME280;10058;57.654;12.044;2023-07-29T05:33:14;100002.88;;;18.30;100.00
19797;BME280;10058;57.654;12.044;2023-07-29T05:35:39;99992.66;;;18.53;100.00
19797;BME280;10058;57.654;12.044;2023-07-29T05:38:05;99985.41;;;18.63;100.00
19797;BME280;10058;57.654;12.044;2023-07-29T05:40:33;99976.53;;;18.59;100.00
19797;BME280;10058;57.654;12.044;2023-07-29T05:42:58;99980.22;;;18.52;100.00
19797;BME280;10058;57.654;12.044;2023-07-29T05:45:23;99980.59;;;18.29;100.00
19797;BME280;10058;57.654;12.044;2023-07-29T05:47:49;99979.75;;;18.26;100.00
19797;BME280;10058;57.654;12.044;2023-07-29T05:50:14;99984.22;;;18.25;100.00
19797;BME280;10058;57.654;12.044;2023-07-29T05:52:40;99979.91;;;18.18;100.00
19797;BME280;10058;57.654;12.044;2023-07-29T05:55:05;99981.69;;;18.18;100.00
19797;BME280;10058;57.654;12.044;2023-07-29T05:57:30;99970.91;;;18.21;100.00
19797;BME280;10058;57.654;12.044;2023-07-29T05:59:56;99964.63;;;18.25;100.00
19797;BME280;10058;57.654;12.044;2023-07-29T06:02:21;99975.91;;;18.42;100.00
19797;BME280;10058;57.654;12.044;2023-07-29T06:04:46;99975.78;;;18.51;100.00
19797;BME280;10058;57.654;12.044;2023-07-29T06:07:12;99957.88;;;18.53;100.00
19797;BME280;10058;57.654;12.044;2023-07-29T06:09:38;99954.19;;;18.62;100.00
19797;BME280;10058;57.654;12.044;2023-07-29T06:12:04;99954.00;;;18.72;100.00
19797;BME280;10058;57.654;12.044;2023-07-29T06:14:29;99952.13;;;18.77;100.00
19797;BME280;10058;57.654;12.044;2023-07-29T06:16:55;99951.81;;;18.93;100.00
19797;BME280;10058;57.654;12.044;2023-07-29T06:19:20;99933.88;;;18.98;100.00
19797;BME280;10058;57.654;12.044;2023-07-29T06:21:46;99934.50;;;19.10;100.00
19797;BME280;10058;57.654;12.044;2023-07-29T06:24:11;99939.59;;;19.23;100.00
19797;BME280;10058;57.654;12.044;2023-07-29T06:26:36;99935.22;;;19.20;100.00
19797;BME280;10058;57.654;12.044;2023-07-29T06:29:02;99924.53;;;19.19;100.00
19797;BME280;10058;57.654;12.044;2023-07-29T06:31:27;99922.84;;;19.13;100.00
19797;BME280;10058;57.654;12.044;2023-07-29T06:33:52;99920.25;;;19.08;100.00
19797;BME280;10058;57.654;12.044;2023-07-29T06:36:17;99919.31;;;19.11;100.00
19797;BME280;10058;57.654;12.044;2023-07-29T06:38:42;99913.69;;;19.23;100.00
19797;BME280;10058;57.654;12.044;2023-07-29T06:41:08;99910.41;;;19.09;100.00
19797;BME280;10058;57.654;12.044;2023-07-29T06:43:33;99910.31;;;19.15;100.00
19797;BME280;10058;57.654;12.044;2023-07-29T06:45:58;99861.88;;;19.24;100.00
19797;BME280;10058;57.654;12.044;2023-07-29T06:48:23;99867.03;;;19.33;100.00
19797;BME280;10058;57.654;12.044;2023-07-29T06:50:49;99866.81;;;19.42;100.00
19797;BME280;10058;57.654;12.044;2023-07-29T06:53:15;99856.31;;;19.33;100.00
19797;BME280;10058;57.654;12.044;2023-07-29T06:55:40;99866.19;;;19.31;100.00
19797;BME280;10058;57.654;12.044;2023-07-29T06:58:05;99870.16;;;19.13;100.00
19797;BME280;10058;57.654;12.044;2023-07-29T07:00:31;99868.75;;;18.96;100.00
19797;BME280;10058;57.654;12.044;2023-07-29T07:02:56;99860.66;;;18.99;100.00
19797;BME280;10058;57.654;12.044;2023-07-29T07:05:21;99863.41;;;18.96;100.00
19797;BME280;10058;57.654;12.044;2023-07-29T07:07:46;99869.88;;;18.86;100.00
19797;BME280;10058;57.654;12.044;2023-07-29T07:10:11;99860.84;;;18.90;100.00
19797;BME280;10058;57.654;12.044;2023-07-29T07:12:37;99863.38;;;18.97;100.00
19797;BME280;10058;57.654;12.044;2023-07-29T07:15:02;99855.91;;;19.11;100.00
19797;BME280;10058;57.654;12.044;2023-07-29T07:17:27;99848.38;;;19.29;100.00
19797;BME280;10058;57.654;12.044;2023-07-29T07:19:52;99848.25;;;19.35;100.00
19797;BME280;10058;57.654;12.044;2023-07-29T07:22:17;99845.53;;;19.36;100.00
19797;BME280;10058;57.654;12.044;2023-07-29T07:24:43;99844.44;;;19.45;100.00
19797;BME280;10058;57.654;12.044;2023-07-29T07:27:08;99845.25;;;19.48;100.00
19797;BME280;10058;57.654;12.044;2023-07-29T07:29:33;99839.88;;;19.48;100.00
19797;BME280;10058;57.654;12.044;2023-07-29T07:31:58;99844.00;;;19.65;100.00
19797;BME280;10058;57.654;12.044;2023-07-29T07:34:24;99846.69;;;19.65;100.00
19797;BME280;10058;57.654;12.044;2023-07-29T07:36:49;99837.47;;;19.75;100.00
19797;BME280;10058;57.654;12.044;2023-07-29T07:39:14;99835.50;;;19.83;100.00
19797;BME280;10058;57.654;12.044;2023-07-29T07:41:40;99837.69;;;20.03;100.00
19797;BME280;10058;57.654;12.044;2023-07-29T07:44:05;99836.72;;;20.05;100.00
19797;BME280;10058;57.654;12.044;2023-07-29T07:46:31;99824.91;;;20.12;100.00
19797;BME280;10058;57.654;12.044;2023-07-29T07:48:56;99819.69;;;20.42;100.00
19797;BME280;10058;57.654;12.044;2023-07-29T07:51:21;99823.00;;;20.50;100.00
19797;BME280;10058;57.654;12.044;2023-07-29T07:53:46;99825.66;;;20.17;100.00
19797;BME280;10058;57.654;12.044;2023-07-29T07:56:11;99831.75;;;20.24;100.00
19797;BME280;10058;57.654;12.044;2023-07-29T07:58:37;99818.38;;;20.23;100.00
19797;BME280;10058;57.654;12.044;2023-07-29T08:01:06;99818.00;;;20.38;100.00
19797;BME280;10058;57.654;12.044;2023-07-29T08:03:32;99810.88;;;20.68;100.00
19797;BME280;10058;57.654;12.044;2023-07-29T08:05:57;99801.84;;;21.00;100.00
19797;BME280;10058;57.654;12.044;2023-07-29T08:08:22;99798.59;;;21.18;100.00
19797;BME280;10058;57.654;12.044;2023-07-29T08:10:47;99789.16;;;21.05;100.00
19797;BME280;10058;57.654;12.044;2023-07-29T08:13:12;99795.78;;;20.95;100.00
19797;BME280;10058;57.654;12.044;2023-07-29T08:15:38;99798.25;;;21.01;100.00
19797;BME280;10058;57.654;12.044;2023-07-29T08:18:03;99789.00;;;21.11;100.00
19797;BME280;10058;57.654;12.044;2023-07-29T08:20:28;99791.50;;;20.88;100.00
19797;BME280;10058;57.654;12.044;2023-07-29T08:22:53;99787.50;;;21.01;100.00
19797;BME280;10058;57.654;12.044;2023-07-29T08:25:18;99781.19;;;21.31;100.00
19797;BME280;10058;57.654;12.044;2023-07-29T08:27:44;99773.78;;;21.39;100.00
19797;BME280;10058;57.654;12.044;2023-07-29T08:30:09;99786.13;;;21.15;100.00
19797;BME280;10058;57.654;12.044;2023-07-29T08:32:34;99786.22;;;20.84;100.00
19797;BME280;10058;57.654;12.044;2023-07-29T08:34:59;99795.53;;;20.73;100.00
19797;BME280;10058;57.654;12.044;2023-07-29T08:37:25;99796.31;;;20.76;100.00
19797;BME280;10058;57.654;12.044;2023-07-29T08:39:52;99787.78;;;20.61;100.00
19797;BME280;10058;57.654;12.044;2023-07-29T08:42:18;99797.31;;;20.41;100.00
19797;BME280;10058;57.654;12.044;2023-07-29T08:44:44;99802.09;;;20.29;100.00
19797;BME280;10058;57.654;12.044;2023-07-29T08:47:11;99798.50;;;20.30;100.00
19797;BME280;10058;57.654;12.044;2023-07-29T08:49:38;99797.56;;;20.63;100.00
19797;BME280;10058;57.654;12.044;2023-07-29T08:52:03;99799.91;;;21.05;100.00
19797;BME280;10058;57.654;12.044;2023-07-29T08:54:29;99780.75;;;21.15;100.00
19797;BME280;10058;57.654;12.044;2023-07-29T08:56:54;99785.56;;;21.06;100.00
19797;BME280;10058;57.654;12.044;2023-07-29T08:59:19;99787.13;;;21.13;100.00
19797;BME280;10058;57.654;12.044;2023-07-29T09:01:45;99798.25;;;21.01;100.00
19797;BME280;10058;57.654;12.044;2023-07-29T09:04:11;99803.81;;;20.95;100.00
19797;BME280;10058;57.654;12.044;2023-07-29T09:06:36;99798.34;;;20.98;100.00
19797;BME280;10058;57.654;12.044;2023-07-29T09:09:03;99802.31;;;20.84;100.00
19797;BME280;10058;57.654;12.044;2023-07-29T09:11:28;99797.56;;;20.63;100.00
19797;BME280;10058;57.654;12.044;2023-07-29T09:13:53;99804.09;;;20.85;100.00
19797;BME280;10058;57.654;12.044;2023-07-29T09:16:22;99792.78;;;21.04;100.00
19797;BME280;10058;57.654;12.044;2023-07-29T09:18:48;99793.34;;;21.44;100.00
19797;BME280;10058;57.654;12.044;2023-07-29T09:21:15;99784.72;;;21.33;100.00
19797;BME280;10058;57.654;12.044;2023-07-29T09:23:41;99789.50;;;21.51;100.00
19797;BME280;10058;57.654;12.044;2023-07-29T09:26:06;99786.09;;;21.46;100.00
19797;BME280;10058;57.654;12.044;2023-07-29T09:28:33;99785.09;;;21.49;100.00
19797;BME280;10058;57.654;12.044;2023-07-29T09:30:58;99783.94;;;21.58;100.00
19797;BME280;10058;57.654;12.044;2023-07-29T09:33:25;99785.06;;;21.77;100.00
19797;BME280;10058;57.654;12.044;2023-07-29T09:35:50;99775.44;;;22.22;100.00
19797;BME280;10058;57.654;12.044;2023-07-29T09:38:16;99776.16;;;22.28;100.00
19797;BME280;10058;57.654;12.044;2023-07-29T09:40:41;99772.41;;;22.32;100.00
19797;BME280;10058;57.654;12.044;2023-07-29T09:43:07;99762.66;;;22.76;100.00
19797;BME280;10058;57.654;12.044;2023-07-29T09:45:35;99748.56;;;23.59;100.00
19797;BME280;10058;57.654;12.044;2023-07-29T09:48:01;99738.84;;;23.55;100.00
19797;BME280;10058;57.654;12.044;2023-07-29T09:50:26;99747.09;;;23.73;100.00
19797;BME280;10058;57.654;12.044;2023-07-29T09:52:53;99739.59;;;24.01;100.00
19797;BME280;10058;57.654;12.044;2023-07-29T09:55:18;99736.13;;;23.98;100.00
19797;BME280;10058;57.654;12.044;2023-07-29T09:57:44;99743.50;;;23.94;100.00
19797;BME280;10058;57.654;12.044;2023-07-29T10:00:13;99740.34;;;23.63;100.00
19797;BME280;10058;57.654;12.044;2023-07-29T10:02:39;99738.84;;;23.34;100.00
19797;BME280;10058;57.654;12.044;2023-07-29T10:05:05;99744.25;;;22.88;100.00
19797;BME280;10058;57.654;12.044;2023-07-29T10:07:30;99750.09;;;23.00;100.00
19797;BME280;10058;57.654;12.044;2023-07-29T10:09:56;99741.50;;;22.67;100.00
19797;BME280;10058;57.654;12.044;2023-07-29T10:12:22;99738.84;;;22.65;100.00
19797;BME280;10058;57.654;12.044;2023-07-29T10:14:49;99739.38;;;22.98;100.00
19797;BME280;10058;57.654;12.044;2023-07-29T10:17:15;99745.75;;;22.72;100.00
19797;BME280;10058;57.654;12.044;2023-07-29T10:19:40;99746.81;;;22.20;100.00
19797;BME280;10058;57.654;12.044;2023-07-29T10:22:07;99754.22;;;21.87;100.00
19797;BME280;10058;57.654;12.044;2023-07-29T10:24:33;99754.34;;;21.58;100.00
19797;BME280;10058;57.654;12.044;2023-07-29T10:26:59;99765.63;;;21.69;100.00
19797;BME280;10058;57.654;12.044;2023-07-29T10:29:24;99787.53;;;21.57;100.00
19797;BME280;10058;57.654;12.044;2023-07-29T10:31:54;99794.03;;;21.77;100.00
19797;BME280;10058;57.654;12.044;2023-07-29T10:34:22;99784.94;;;22.33;100.00
19797;BME280;10058;57.654;12.044;2023-07-29T10:36:48;99780.06;;;22.67;100.00
19797;BME280;10058;57.654;12.044;2023-07-29T10:39:14;99769.69;;;22.81;100.00
19797;BME280;10058;57.654;12.044;2023-07-29T10:41:58;99770.94;;;23.18;100.00
19797;BME280;10058;57.654;12.044;2023-07-29T10:47:10;99774.50;;;22.23;100.00
19797;BME280;10058;57.654;12.044;2023-07-29T10:49:36;99789.47;;;21.79;100.00
19797;BME280;10058;57.654;12.044;2023-07-29T10:52:01;99783.50;;;21.70;100.00
19797;BME280;10058;57.654;12.044;2023-07-29T10:54:26;99785.69;;;21.59;100.00
19797;BME280;10058;57.654;12.044;2023-07-29T10:56:52;99794.84;;;21.25;100.00
19797;BME280;10058;57.654;12.044;2023-07-29T11:01:57;99801.06;;;20.96;100.00
19797;BME280;10058;57.654;12.044;2023-07-29T11:04:23;99795.56;;;21.58;100.00
19797;BME280;10058;57.654;12.044;2023-07-29T11:09:42;99802.41;;;21.40;100.00
19797;BME280;10058;57.654;12.044;2023-07-29T11:15:03;99806.50;;;21.52;100.00
19797;BME280;10058;57.654;12.044;2023-07-29T11:17:29;99792.78;;;21.87;100.00
19797;BME280;10058;57.654;12.044;2023-07-29T11:19:56;99788.72;;;21.48;100.00
19797;BME280;10058;57.654;12.044;2023-07-29T11:22:25;99801.16;;;21.24;100.00
19797;BME280;10058;57.654;12.044;2023-07-29T11:24:50;99800.56;;;21.42;100.00
19797;BME280;10058;57.654;12.044;2023-07-29T11:27:16;99782.63;;;21.13;100.00
19797;BME280;10058;57.654;12.044;2023-07-29T11:29:41;99799.63;;;21.14;100.00
19797;BME280;10058;57.654;12.044;2023-07-29T11:32:06;99799.91;;;21.05;100.00
19797;BME280;10058;57.654;12.044;2023-07-29T11:34:32;99800.09;;;21.30;100.00
19797;BME280;10058;57.654;12.044;2023-07-29T11:36:57;99788.25;;;21.63;100.00
19797;BME280;10058;57.654;12.044;2023-07-29T11:39:22;99789.00;;;21.67;100.00
19797;BME280;10058;57.654;12.044;2023-07-29T11:41:47;99774.63;;;21.94;100.00
19797;BME280;10058;57.654;12.044;2023-07-29T11:44:16;99770.09;;;22.69;100.00
19797;BME280;10058;57.654;12.044;2023-07-29T11:46:41;99759.88;;;23.24;100.00
19797;BME280;10058;57.654;12.044;2023-07-29T11:49:07;99755.13;;;23.09;100.00
19797;BME280;10058;57.654;12.044;2023-07-29T11:51:32;99741.97;;;23.67;100.00
19797;BME280;10058;57.654;12.044;2023-07-29T11:53:58;99747.47;;;23.85;100.00
19797;BME280;10058;57.654;12.044;2023-07-29T11:56:23;99738.44;;;23.43;100.00
19797;BME280;10058;57.654;12.044;2023-07-29T11:58:49;99736.31;;;23.29;100.00
19797;BME280;10058;57.654;12.044;2023-07-29T12:01:14;99744.13;;;23.58;100.00
19797;BME280;10058;57.654;12.044;2023-07-29T12:03:39;99746.28;;;23.27;100.00
19797;BME280;10058;57.654;12.044;2023-07-29T12:06:05;99747.47;;;22.98;100.00
19797;BME280;10058;57.654;12.044;2023-07-29T12:08:30;99749.50;;;23.15;100.00
19797;BME280;10058;57.654;12.044;2023-07-29T12:10:55;99741.03;;;22.79;100.00
19797;BME280;10058;57.654;12.044;2023-07-29T12:13:23;99736.16;;;22.88;100.00
19797;BME280;10058;57.654;12.044;2023-07-29T12:15:48;99743.97;;;23.18;100.00
19797;BME280;10058;57.654;12.044;2023-07-29T12:18:14;99736.75;;;23.84;100.00
19797;BME280;10058;57.654;12.044;2023-07-29T12:20:39;99717.72;;;24.27;100.00
19797;BME280;10058;57.654;12.044;2023-07-29T12:23:05;99725.53;;;24.13;100.00
19797;BME280;10058;57.654;12.044;2023-07-29T12:25:32;99719.00;;;24.19;100.00
19797;BME280;10058;57.654;12.044;2023-07-29T12:28:06;99712.06;;;24.34;100.00
19797;BME280;10058;57.654;12.044;2023-07-29T12:30:31;99717.84;;;23.84;100.00
19797;BME280;10058;57.654;12.044;2023-07-29T12:32:57;99707.31;;;24.18;100.00
19797;BME280;10058;57.654;12.044;2023-07-29T12:35:22;99708.00;;;24.03;100.00
19797;BME280;10058;57.654;12.044;2023-07-29T12:37:57;99701.84;;;24.20;100.00
19797;BME280;10058;57.654;12.044;2023-07-29T12:40:23;99704.09;;;23.70;100.00
19797;BME280;10058;57.654;12.044;2023-07-29T12:42:49;99712.34;;;23.43;100.00
19797;BME280;10058;57.654;12.044;2023-07-29T12:45:15;99713.41;;;23.19;100.00
19797;BME280;10058;57.654;12.044;2023-07-29T12:47:41;99711.81;;;23.35;100.00
19797;BME280;10058;57.654;12.044;2023-07-29T12:50:06;99701.91;;;23.57;100.00